createdAt,value
2019-05-23T00:02:27.072Z,48.13
2019-05-23T00:05:09.679Z,51.90
2019-05-23T00:07:40.610Z,55.58
2019-05-23T00:10:11.035Z,53.30
2019-05-23T00:12:45.086Z,53.78
2019-05-23T00:15:18.946Z,52.03
2019-05-23T00:17:48.582Z,61.05
2019-05-23T00:20:18.819Z,51.15
2019-05-23T00:22:48.324Z,49.53
2019-05-23T00:25:17.500Z,54.38
2019-05-23T00:27:47.771Z,56.68
2019-05-23T00:30:18.836Z,56.25
2019-05-23T00:32:50.498Z,55.05
2019-05-23T00:35:20.890Z,55.60
2019-05-23T00:37:50.530Z,53.25
2019-05-23T00:40:21.163Z,58.90
2019-05-23T00:42:50.848Z,47.43
2019-05-23T00:45:21.618Z,52.58
2019-05-23T00:47:52.366Z,58.40
2019-05-23T00:50:21.846Z,58.08
2019-05-23T00:52:53.194Z,54.50
2019-05-23T00:55:23.939Z,55.70
2019-05-23T00:57:53.937Z,56.08
2019-05-23T01:00:24.678Z,54.77
2019-05-23T01:02:55.606Z,54.15
2019-05-23T01:05:25.870Z,58.13
2019-05-23T01:07:56.124Z,58.25
2019-05-23T01:10:25.865Z,57.67
2019-05-23T01:12:55.587Z,59.77
2019-05-23T01:15:25.606Z,59.88
2019-05-23T01:17:55.362Z,61.63
2019-05-23T01:20:44.370Z,59.48
2019-05-23T01:23:15.214Z,59.18
2019-05-23T01:25:44.859Z,52.90
2019-05-23T01:28:14.650Z,60.60
2019-05-23T01:30:48.152Z,61.20
2019-05-23T01:33:18.445Z,62.90
2019-05-23T01:35:48.254Z,60.48
2019-05-23T01:38:18.755Z,61.05
2019-05-23T01:40:48.595Z,60.60
2019-05-23T01:43:18.267Z,61.28
2019-05-23T01:45:47.403Z,66.00
2019-05-23T01:48:17.026Z,62.05
2019-05-23T01:50:46.619Z,66.15
2019-05-23T01:53:17.458Z,65.57
2019-05-23T01:55:46.867Z,66.00
2019-05-23T01:58:16.546Z,63.08
2019-05-23T02:00:47.546Z,70.60
2019-05-23T02:03:16.913Z,73.80
2019-05-23T02:05:46.383Z,66.25
2019-05-23T02:08:16.369Z,71.00
2019-05-23T02:10:47.755Z,70.78
2019-05-23T02:13:17.634Z,70.97
2019-05-23T02:15:47.589Z,72.30
2019-05-23T02:18:18.158Z,64.60
2019-05-23T02:20:47.743Z,74.40
2019-05-23T02:23:18.027Z,71.50
2019-05-23T02:25:49.003Z,78.47
2019-05-23T02:28:19.227Z,70.25
2019-05-23T02:30:49.013Z,68.42
2019-05-23T02:33:18.882Z,71.07
2019-05-23T02:35:48.266Z,77.95
2019-05-23T02:38:25.204Z,79.10
2019-05-23T02:41:02.319Z,71.02
2019-05-23T02:43:33.524Z,76.12
2019-05-23T02:46:24.325Z,75.72
2019-05-23T02:48:56.035Z,78.78
2019-05-23T02:51:29.596Z,80.00
2019-05-23T02:54:01.540Z,81.92
2019-05-23T02:56:34.616Z,83.58
2019-05-23T02:59:13.284Z,75.92
2019-05-23T03:02:15.876Z,78.62
2019-05-23T03:04:45.681Z,79.32
2019-05-23T03:07:18.006Z,82.00
2019-05-23T03:09:48.299Z,91.65
2019-05-23T03:12:18.614Z,70.42
2019-05-23T03:14:48.845Z,81.67
2019-05-23T03:17:20.517Z,74.67
2019-05-23T03:19:57.033Z,80.28
2019-05-23T03:22:46.251Z,77.78
2019-05-23T03:25:34.171Z,85.20
2019-05-23T03:28:05.644Z,83.85
2019-05-23T03:30:36.600Z,83.05
2019-05-23T03:33:06.008Z,78.17
2019-05-23T03:35:36.830Z,75.42
2019-05-23T03:38:06.749Z,83.65
2019-05-23T03:40:36.600Z,82.85
2019-05-23T03:43:07.858Z,77.97
2019-05-23T03:45:39.813Z,99.92
2019-05-23T03:48:11.643Z,88.45
2019-05-23T03:50:41.547Z,92.00
2019-05-23T03:53:10.774Z,86.32
2019-05-23T03:55:42.117Z,88.62
2019-05-23T03:58:13.167Z,79.32
2019-05-23T04:00:44.718Z,89.37
2019-05-23T04:03:14.423Z,88.87
2019-05-23T04:05:43.830Z,92.15
2019-05-23T04:08:13.484Z,93.00
2019-05-23T04:10:42.894Z,86.12
2019-05-23T04:13:12.192Z,83.95
2019-05-23T04:15:41.957Z,94.75
2019-05-23T04:18:11.371Z,80.65
2019-05-23T04:20:40.664Z,87.50
2019-05-23T04:23:10.499Z,88.82
2019-05-23T04:25:39.582Z,80.00
2019-05-23T04:28:08.970Z,81.05
2019-05-23T04:30:38.031Z,78.35
2019-05-23T04:33:07.549Z,81.35
2019-05-23T04:35:37.232Z,82.60
2019-05-23T04:38:06.992Z,78.65
2019-05-23T04:40:36.888Z,73.62
2019-05-23T04:43:06.101Z,71.20
2019-05-23T04:45:35.209Z,72.70
2019-05-23T04:48:04.806Z,71.28
2019-05-23T04:50:34.689Z,70.60
2019-05-23T04:53:04.259Z,75.52
2019-05-23T04:55:33.867Z,63.58
2019-05-23T04:58:04.859Z,64.72
2019-05-23T05:00:34.830Z,66.45
2019-05-23T05:03:06.760Z,60.12
2019-05-23T05:05:36.164Z,62.00
2019-05-23T05:08:05.686Z,63.05
2019-05-23T05:10:36.215Z,56.60
2019-05-23T05:13:05.924Z,53.02
2019-05-23T05:15:36.315Z,65.12
2019-05-23T05:18:06.707Z,55.73
2019-05-23T05:20:36.551Z,51.45
2019-05-23T05:23:06.057Z,48.13
2019-05-23T05:25:35.520Z,49.18
2019-05-23T05:28:05.468Z,45.38
2019-05-23T05:30:35.019Z,45.00
2019-05-23T05:33:04.211Z,48.05
2019-05-23T05:35:33.429Z,47.75
2019-05-23T05:38:02.905Z,43.95
2019-05-23T05:40:32.098Z,49.27
2019-05-23T05:43:03.078Z,43.90
2019-05-23T05:45:32.670Z,45.05
2019-05-23T05:48:02.453Z,41.68
2019-05-23T05:50:32.311Z,41.28
2019-05-23T05:53:04.096Z,43.45
2019-05-23T05:55:33.492Z,40.85
2019-05-23T05:58:02.976Z,32.95
2019-05-23T06:00:34.013Z,35.20
2019-05-23T06:03:05.519Z,33.40
2019-05-23T06:05:52.875Z,30.45
2019-05-23T06:08:23.846Z,31.20
2019-05-23T06:10:53.042Z,33.10
2019-05-23T06:13:22.517Z,33.08
2019-05-23T06:15:52.983Z,33.28
2019-05-23T06:18:22.605Z,31.52
2019-05-23T06:20:52.015Z,30.52
2019-05-23T06:23:21.217Z,35.88
2019-05-23T06:25:50.428Z,27.00
2019-05-23T06:28:20.534Z,25.35
2019-05-23T06:30:50.353Z,25.52
2019-05-23T06:33:23.681Z,23.52
2019-05-23T06:35:51.835Z,22.15
2019-05-23T06:38:21.607Z,22.85
2019-05-23T06:40:51.669Z,25.52
2019-05-23T06:43:21.946Z,24.43
2019-05-23T06:45:51.698Z,22.87
2019-05-23T06:48:21.327Z,25.12
2019-05-23T06:50:50.872Z,25.23
2019-05-23T06:53:20.094Z,25.05
2019-05-23T06:55:49.310Z,23.40
2019-05-23T06:58:18.721Z,25.12
2019-05-23T07:00:48.963Z,21.23
2019-05-23T07:03:18.731Z,20.00
2019-05-23T07:05:48.388Z,21.30
2019-05-23T07:08:17.948Z,20.37
2019-05-23T07:10:47.099Z,19.07
2019-05-23T07:13:16.234Z,18.05
2019-05-23T07:15:45.643Z,21.90
2019-05-23T07:18:14.774Z,21.97
2019-05-23T07:20:44.349Z,21.30
2019-05-23T07:23:14.070Z,21.85
2019-05-23T07:25:43.275Z,20.82
2019-05-23T07:28:12.359Z,24.50
2019-05-23T07:30:41.551Z,22.67
2019-05-23T07:33:10.882Z,21.35
2019-05-23T07:35:40.322Z,19.10
2019-05-23T07:38:09.459Z,20.10
2019-05-23T07:40:38.944Z,21.57
2019-05-23T07:43:08.378Z,19.55
2019-05-23T07:45:40.049Z,20.37
2019-05-23T07:48:09.236Z,18.65
2019-05-23T07:50:38.988Z,16.12
2019-05-23T07:53:10.034Z,16.60
2019-05-23T07:55:40.896Z,16.07
2019-05-23T07:58:13.426Z,16.75
2019-05-23T08:00:42.762Z,19.52
2019-05-23T08:03:14.738Z,15.20
2019-05-23T08:05:44.467Z,15.93
2019-05-23T08:08:13.756Z,16.55
2019-05-23T08:10:43.258Z,15.85
2019-05-23T08:13:12.727Z,13.38
2019-05-23T08:15:42.266Z,16.07
2019-05-23T08:18:12.258Z,18.55
2019-05-23T08:20:42.262Z,14.83
2019-05-23T08:23:11.581Z,16.85
2019-05-23T08:25:40.986Z,15.15
2019-05-23T08:28:10.871Z,14.05
2019-05-23T08:30:40.470Z,15.60
2019-05-23T08:33:10.877Z,14.80
2019-05-23T08:35:40.303Z,14.25
2019-05-23T08:38:10.430Z,18.10
2019-05-23T08:40:40.152Z,24.57
2019-05-23T08:43:09.540Z,19.48
2019-05-23T08:45:38.946Z,17.32
2019-05-23T08:48:08.212Z,15.65
2019-05-23T08:50:37.518Z,13.38
2019-05-23T08:53:06.979Z,14.07
2019-05-23T08:55:37.414Z,14.40
2019-05-23T08:58:06.638Z,13.75
2019-05-23T09:00:37.765Z,14.18
2019-05-23T09:03:07.837Z,13.95
2019-05-23T09:05:38.907Z,13.03
2019-05-23T09:08:09.560Z,12.98
2019-05-23T09:10:39.823Z,11.00
2019-05-23T09:13:09.782Z,12.03
2019-05-23T09:15:39.072Z,10.75
2019-05-23T09:18:09.246Z,11.00
2019-05-23T09:20:39.032Z,10.20
2019-05-23T09:23:08.314Z,9.88
2019-05-23T09:25:37.827Z,11.25
2019-05-23T09:28:09.122Z,9.25
2019-05-23T09:30:38.758Z,11.05
2019-05-23T09:33:08.643Z,8.90
2019-05-23T09:35:38.110Z,9.25
2019-05-23T09:38:07.447Z,12.70
2019-05-23T09:40:36.858Z,11.60
2019-05-23T09:43:06.313Z,10.70
2019-05-23T09:45:35.441Z,11.63
2019-05-23T09:48:04.906Z,11.45
2019-05-23T09:50:34.130Z,13.32
2019-05-23T09:53:03.678Z,11.57
2019-05-23T09:55:33.758Z,13.13
2019-05-23T09:58:03.284Z,9.58
2019-05-23T10:00:32.867Z,11.00
2019-05-23T10:03:02.427Z,11.90
2019-05-23T10:05:42.674Z,13.80
2019-05-23T10:08:02.390Z,11.70
2019-05-23T10:10:32.855Z,11.08
2019-05-23T10:13:01.926Z,11.48
2019-05-23T10:15:40.156Z,11.48
2019-05-23T10:18:11.228Z,11.40
2019-05-23T10:20:40.454Z,8.88
2019-05-23T10:23:09.821Z,11.70
2019-05-23T10:25:38.890Z,14.20
2019-05-23T10:28:08.598Z,10.40
2019-05-23T10:30:37.894Z,10.05
2019-05-23T10:33:12.191Z,10.53
2019-05-23T10:35:38.708Z,11.83
2019-05-23T10:38:07.779Z,10.08
2019-05-23T10:40:37.395Z,10.23
2019-05-23T10:43:06.860Z,9.05
2019-05-23T10:45:36.570Z,13.78
2019-05-23T10:48:06.942Z,12.70
2019-05-23T10:50:44.717Z,13.18
2019-05-23T10:53:07.442Z,9.30
2019-05-23T10:55:36.553Z,8.80
2019-05-23T10:58:06.198Z,11.45
2019-05-23T11:02:07.575Z,9.80
2019-05-23T11:06:16.195Z,8.98
2019-05-23T11:08:41.509Z,8.80
2019-05-23T11:11:14.583Z,7.53
2019-05-23T11:13:45.263Z,9.00
2019-05-23T11:16:15.559Z,7.53
2019-05-23T11:18:45.821Z,9.65
2019-05-23T11:21:15.975Z,5.95
2019-05-23T11:23:50.801Z,6.80
2019-05-23T11:26:21.042Z,7.75
2019-05-23T11:28:51.327Z,6.30
2019-05-23T11:31:21.906Z,7.03
2019-05-23T11:34:56.035Z,5.35
2019-05-23T11:37:25.424Z,5.42
2019-05-23T11:39:54.803Z,4.90
2019-05-23T11:42:24.163Z,6.05
2019-05-23T11:44:53.331Z,4.35
2019-05-23T11:47:22.803Z,4.25
2019-05-23T11:49:52.243Z,4.60
2019-05-23T11:52:21.552Z,4.90
2019-05-23T11:54:50.630Z,3.77
2019-05-23T11:57:19.703Z,2.73
2019-05-23T11:59:49.194Z,3.27
2019-05-23T12:02:28.674Z,3.27
2019-05-23T12:04:59.166Z,2.57
2019-05-23T12:07:30.471Z,3.85
2019-05-23T12:09:59.674Z,4.58
2019-05-23T12:12:28.927Z,3.10
2019-05-23T12:14:57.895Z,3.17
2019-05-23T12:17:29.035Z,2.67
2019-05-23T12:19:57.894Z,6.10
2019-05-23T12:22:28.330Z,4.53
2019-05-23T12:24:57.270Z,3.93
2019-05-23T12:27:26.595Z,5.20
2019-05-23T12:29:56.017Z,3.40
2019-05-23T12:34:01.609Z,4.75
2019-05-23T12:36:31.526Z,3.50
2019-05-23T12:39:01.382Z,6.20
2019-05-23T12:41:31.448Z,3.90
2019-05-23T12:44:01.113Z,3.33
2019-05-23T12:46:31.133Z,4.97
2019-05-23T12:49:02.648Z,3.98
2019-05-23T12:51:33.846Z,3.67
2019-05-23T12:54:03.813Z,3.27
2019-05-23T12:56:34.263Z,3.12
2019-05-23T12:59:04.846Z,4.25
2019-05-23T13:01:35.978Z,2.52
2019-05-23T13:04:09.935Z,2.83
2019-05-23T13:06:37.711Z,3.77
2019-05-23T13:09:09.104Z,6.20
2019-05-23T13:11:39.737Z,5.25
2019-05-23T13:14:09.742Z,3.33
2019-05-23T13:16:39.283Z,4.28
2019-05-23T13:19:08.915Z,3.00
2019-05-23T13:21:38.773Z,3.87
2019-05-23T13:24:08.392Z,4.00
2019-05-23T13:26:38.431Z,4.70
2019-05-23T13:29:08.535Z,3.08
2019-05-23T13:31:38.491Z,4.78
2019-05-23T13:34:08.110Z,7.45
2019-05-23T13:36:37.671Z,4.65
2019-05-23T13:39:08.692Z,5.35
2019-05-23T13:41:38.624Z,6.08
2019-05-23T13:44:08.311Z,4.72
2019-05-23T13:46:38.643Z,4.97
2019-05-23T13:49:08.351Z,6.33
2019-05-23T13:51:38.252Z,4.15
2019-05-23T13:54:08.019Z,6.30
2019-05-23T13:56:37.626Z,5.95
2019-05-23T13:59:07.572Z,4.12
2019-05-23T14:01:37.846Z,4.22
2019-05-23T14:04:07.532Z,3.60
2019-05-23T14:06:37.198Z,3.92
2019-05-23T14:09:07.928Z,3.98
2019-05-23T14:11:38.472Z,3.02
2019-05-23T14:14:08.590Z,3.77
2019-05-23T14:16:55.493Z,5.45
2019-05-23T14:19:29.238Z,7.80
2019-05-23T14:21:57.050Z,3.85
2019-05-23T14:24:26.940Z,3.45
2019-05-23T14:26:58.574Z,4.87
2019-05-23T14:29:28.382Z,2.92
2019-05-23T14:31:59.626Z,3.02
2019-05-23T14:34:29.246Z,3.22
2019-05-23T14:37:00.444Z,3.47
2019-05-23T14:39:31.697Z,4.03
2019-05-23T14:42:05.995Z,2.55
2019-05-23T14:44:35.755Z,3.80
2019-05-23T14:47:11.111Z,2.67
2019-05-23T14:49:45.604Z,3.70
2019-05-23T14:52:19.613Z,4.53
2019-05-23T14:54:50.854Z,4.85
2019-05-23T14:57:21.146Z,2.55
2019-05-23T14:59:51.369Z,3.90
2019-05-23T15:02:21.523Z,4.60
2019-05-23T15:04:51.131Z,4.67
2019-05-23T15:07:21.218Z,3.47
2019-05-23T15:09:50.827Z,3.75
2019-05-23T15:12:20.781Z,7.45
2019-05-23T15:14:50.422Z,3.55
2019-05-23T15:17:20.282Z,4.00
2019-05-23T15:19:49.836Z,4.10
2019-05-23T15:22:19.519Z,4.83
2019-05-23T15:24:49.505Z,2.20
2019-05-23T15:27:19.506Z,5.75
2019-05-23T15:29:49.494Z,3.77
2019-05-23T15:32:19.252Z,4.55
2019-05-23T15:34:48.999Z,5.87
2019-05-23T15:37:19.638Z,3.62
2019-05-23T15:39:49.188Z,5.22
2019-05-23T15:42:19.099Z,5.05
2019-05-23T15:44:48.725Z,5.45
2019-05-23T15:47:20.339Z,5.35
2019-05-23T15:49:51.846Z,4.22
2019-05-23T15:52:39.106Z,5.10
2019-05-23T15:55:16.406Z,5.05
2019-05-23T15:57:50.650Z,5.65
2019-05-23T16:00:38.232Z,5.60
2019-05-23T16:03:13.913Z,5.75
2019-05-23T16:05:43.590Z,5.78
2019-05-23T16:08:13.298Z,6.12
2019-05-23T16:10:42.856Z,4.90
2019-05-23T16:13:13.061Z,3.47
2019-05-23T16:15:42.936Z,5.03
2019-05-23T16:18:12.486Z,3.80
2019-05-23T16:20:42.258Z,3.58
2019-05-23T16:23:11.832Z,5.45
2019-05-23T16:25:41.375Z,3.55
2019-05-23T16:28:11.028Z,4.08
2019-05-23T16:30:40.710Z,3.42
2019-05-23T16:33:10.333Z,3.17
2019-05-23T16:35:40.033Z,5.72
2019-05-23T16:38:09.670Z,4.47
2019-05-23T16:40:39.290Z,3.25
2019-05-23T16:43:09.386Z,7.72
2019-05-23T16:45:38.953Z,7.05
2019-05-23T16:48:08.943Z,5.50
2019-05-23T16:50:38.833Z,4.35
2019-05-23T16:53:08.430Z,4.70
2019-05-23T16:55:42.504Z,6.80
2019-05-23T16:58:25.649Z,5.25
2019-05-23T17:00:59.625Z,4.80
2019-05-23T17:03:43.262Z,2.40
2019-05-23T17:06:20.502Z,3.47
2019-05-23T17:08:52.170Z,7.22
2019-05-23T17:11:29.610Z,3.37
2019-05-23T17:14:13.889Z,4.17
2019-05-23T17:17:05.429Z,4.87
2019-05-23T17:19:50.427Z,5.00
2019-05-23T17:22:21.618Z,4.15
2019-05-23T17:25:08.977Z,3.72
2019-05-23T17:27:40.407Z,2.85
2019-05-23T17:30:11.932Z,2.05
2019-05-23T17:32:41.896Z,5.12
2019-05-23T17:35:11.740Z,3.45
2019-05-23T17:37:41.304Z,3.17
2019-05-23T17:40:24.264Z,2.72
2019-05-23T17:42:42.730Z,5.03
2019-05-23T17:45:14.196Z,5.72
2019-05-23T17:47:44.057Z,5.72
2019-05-23T17:50:14.367Z,4.22
2019-05-23T17:52:44.373Z,7.03
2019-05-23T17:55:14.371Z,4.60
2019-05-23T17:57:44.198Z,4.85
2019-05-23T18:00:15.987Z,2.67
2019-05-23T18:02:46.447Z,3.65
2019-05-23T18:05:16.243Z,3.85
2019-05-23T18:07:46.054Z,3.60
2019-05-23T18:10:15.691Z,7.33
2019-05-23T18:12:45.303Z,7.12
2019-05-23T18:15:15.422Z,4.85
2019-05-23T18:17:45.422Z,8.48
2019-05-23T18:20:16.079Z,4.87
2019-05-23T18:22:46.458Z,6.53
2019-05-23T18:25:17.955Z,5.87
2019-05-23T18:27:47.626Z,5.95
2019-05-23T18:30:22.406Z,6.00
2019-05-23T18:32:53.139Z,5.83
2019-05-23T18:35:22.918Z,6.60
2019-05-23T18:37:52.479Z,4.72
2019-05-23T18:40:22.523Z,5.58
2019-05-23T18:42:52.244Z,4.08
2019-05-23T18:45:22.444Z,5.87
2019-05-23T18:47:52.238Z,4.53
2019-05-23T18:50:22.704Z,9.33
2019-05-23T18:52:52.503Z,8.45
2019-05-23T18:55:22.494Z,3.35
2019-05-23T18:57:52.140Z,7.30
2019-05-23T19:00:24.821Z,5.35
2019-05-23T19:02:54.878Z,7.58
2019-05-23T19:05:27.479Z,5.67
2019-05-23T19:07:56.404Z,8.00
2019-05-23T19:10:26.089Z,12.07
2019-05-23T19:12:56.083Z,8.83
2019-05-23T19:15:25.711Z,7.15
2019-05-23T19:17:55.717Z,5.78
2019-05-23T19:20:25.853Z,8.83
2019-05-23T19:22:55.735Z,7.92
2019-05-23T19:25:25.319Z,3.83
2019-05-23T19:27:55.168Z,5.37
2019-05-23T19:30:24.957Z,10.98
2019-05-23T19:32:55.004Z,6.87
2019-05-23T19:35:25.035Z,6.00
2019-05-23T19:37:54.750Z,6.12
2019-05-23T19:40:24.808Z,11.38
2019-05-23T19:42:54.700Z,5.55
2019-05-23T19:45:24.352Z,12.93
2019-05-23T19:47:54.340Z,4.62
2019-05-23T19:50:24.169Z,5.47
2019-05-23T19:52:53.984Z,9.85
2019-05-23T19:55:23.968Z,8.85
2019-05-23T19:57:54.604Z,8.60
2019-05-23T20:00:25.419Z,9.10
2019-05-23T20:02:57.449Z,9.53
2019-05-23T20:05:37.998Z,8.45
2019-05-23T20:08:07.847Z,9.48
2019-05-23T20:10:38.289Z,11.35
2019-05-23T20:13:08.119Z,9.45
2019-05-23T20:15:37.981Z,8.13
2019-05-23T20:18:09.839Z,10.63
2019-05-23T20:20:39.723Z,7.95
2019-05-23T20:23:09.963Z,14.40
2019-05-23T20:25:39.743Z,9.85
2019-05-23T20:28:09.862Z,8.48
2019-05-23T20:30:46.066Z,14.50
2019-05-23T20:33:15.985Z,10.45
2019-05-23T20:35:45.661Z,10.40
2019-05-23T20:38:15.380Z,12.95
2019-05-23T20:40:44.999Z,9.93
2019-05-23T20:43:14.610Z,9.48
2019-05-23T20:45:44.166Z,11.90
2019-05-23T20:48:13.863Z,13.28
2019-05-23T20:50:43.591Z,10.58
2019-05-23T20:53:13.273Z,6.75
2019-05-23T20:55:43.051Z,9.33
2019-05-23T20:58:12.753Z,11.48
2019-05-23T21:00:47.056Z,8.93
2019-05-23T21:03:16.606Z,9.23
2019-05-23T21:05:46.374Z,14.75
2019-05-23T21:08:16.254Z,12.50
2019-05-23T21:10:47.819Z,12.78
2019-05-23T21:13:18.191Z,11.95
2019-05-23T21:15:48.416Z,13.08
2019-05-23T21:18:18.118Z,16.23
2019-05-23T21:20:47.666Z,13.55
2019-05-23T21:23:17.578Z,10.50
2019-05-23T21:25:49.129Z,11.83
2019-05-23T21:28:19.053Z,15.08
2019-05-23T21:30:48.755Z,13.68
2019-05-23T21:33:18.618Z,17.55
2019-05-23T21:35:48.791Z,14.43
2019-05-23T21:38:18.414Z,13.80
2019-05-23T21:40:48.166Z,12.63
2019-05-23T21:43:17.870Z,13.58
2019-05-23T21:45:47.735Z,12.47
2019-05-23T21:48:17.341Z,16.30
2019-05-23T21:50:47.236Z,16.52
2019-05-23T21:53:17.061Z,19.05
2019-05-23T21:55:46.671Z,15.98
2019-05-23T21:58:16.299Z,16.42
2019-05-23T22:01:08.084Z,11.57
2019-05-23T22:03:50.107Z,12.45
2019-05-23T22:06:21.941Z,12.60
2019-05-23T22:08:52.387Z,12.33
2019-05-23T22:11:22.096Z,11.53
2019-05-23T22:13:52.507Z,13.05
2019-05-23T22:16:22.294Z,8.63
2019-05-23T22:18:51.864Z,12.37
2019-05-23T22:21:21.803Z,10.23
2019-05-23T22:23:51.867Z,9.55
2019-05-23T22:26:22.094Z,10.68
2019-05-23T22:28:51.710Z,10.40
2019-05-23T22:31:22.140Z,15.58
2019-05-23T22:34:08.441Z,10.48
2019-05-23T22:36:38.306Z,10.38
2019-05-23T22:39:09.125Z,9.80
2019-05-23T22:41:39.129Z,13.05
2019-05-23T22:44:09.717Z,12.75
2019-05-23T22:46:39.425Z,11.10
2019-05-23T22:49:09.054Z,9.50
2019-05-23T22:51:38.868Z,10.65
2019-05-23T22:54:08.818Z,10.50
2019-05-23T22:56:38.365Z,12.15
2019-05-23T22:59:08.088Z,12.82
2019-05-23T23:01:38.177Z,10.58
2019-05-23T23:04:07.903Z,9.23
2019-05-23T23:06:37.515Z,12.50
2019-05-23T23:09:07.941Z,12.20
2019-05-23T23:11:37.491Z,16.23
2019-05-23T23:14:07.196Z,15.68
2019-05-23T23:16:37.299Z,15.98
2019-05-23T23:19:07.311Z,16.17
2019-05-23T23:21:37.175Z,14.43
2019-05-23T23:24:06.934Z,10.50
2019-05-23T23:26:36.831Z,8.50
2019-05-23T23:29:07.212Z,14.13
2019-05-23T23:31:37.083Z,12.05
2019-05-23T23:34:06.674Z,10.55
2019-05-23T23:36:36.510Z,11.60
2019-05-23T23:39:07.281Z,16.15
2019-05-23T23:41:36.855Z,14.10
2019-05-23T23:44:08.579Z,10.93
2019-05-23T23:46:56.327Z,12.40
2019-05-23T23:49:43.740Z,10.68
2019-05-23T23:52:31.585Z,19.35
2019-05-23T23:55:19.187Z,14.80
2019-05-23T23:58:00.171Z,18.95
